Terminal Aerodrome Forecast
Issued by NWS Albany, NY

Home | Current Version | Previous Version | Text Only | Print | Product List | Glossary On
Versions: 1 2 3 4 5 6 7 8 9 10 11 12 13 14 15 16 17 18 19 20 21 22 23 24
084
FTUS41 KALY 190537
TAFPOU
TAF
KPOU 190537Z 1906/2006 00000KT 2SM BR BKN003 OVC015
      TEMPO 1906/1910 1/2SM FG VV003
     FM191000 00000KT 2SM BR BKN003 OVC025
      TEMPO 1910/1913 1/2SM FG VV003
     FM191300 VRB03KT P6SM SCT025 SCT250
     FM191600 31005KT P6SM SCT250=

USA.gov is the U.S. government's official web portal to all federal, state and local government web resources and services.